createdAt,value
2023-03-21T00:03:07.211Z,5.35
2023-03-21T00:08:02.219Z,5.30
2023-03-21T00:12:59.024Z,4.80
2023-03-21T00:17:51.604Z,5.43
2023-03-21T00:22:45.564Z,4.60
2023-03-21T00:28:05.199Z,4.90
2023-03-21T00:32:56.045Z,4.50
2023-03-21T00:37:50.157Z,4.40
2023-03-21T00:42:42.993Z,4.53
2023-03-21T00:47:36.457Z,4.75
2023-03-21T00:52:40.114Z,4.35
2023-03-21T00:57:39.002Z,4.47
2023-03-21T01:02:33.201Z,4.78
2023-03-21T01:07:26.662Z,4.25
2023-03-21T01:12:19.194Z,4.70
2023-03-21T01:17:13.013Z,4.22
2023-03-21T01:22:06.950Z,4.25
2023-03-21T01:26:59.673Z,4.05
2023-03-21T01:31:52.414Z,4.45
2023-03-21T01:36:45.990Z,3.60
2023-03-21T01:41:44.805Z,3.88
2023-03-21T01:47:11.472Z,3.55
2023-03-21T01:52:26.484Z,3.90
2023-03-21T01:57:43.541Z,3.78
2023-03-21T02:02:52.222Z,4.20
2023-03-21T02:08:06.126Z,3.28
2023-03-21T02:13:09.853Z,3.35
2023-03-21T02:18:29.295Z,3.22
2023-03-21T02:23:59.809Z,3.30
2023-03-21T02:28:57.152Z,3.00
2023-03-21T02:34:14.437Z,2.95
2023-03-21T02:39:27.207Z,3.13
2023-03-21T02:44:41.911Z,3.35
2023-03-21T02:50:32.582Z,3.30
2023-03-21T02:55:27.458Z,3.22
2023-03-21T03:00:31.782Z,2.70
2023-03-21T03:05:48.540Z,2.80
2023-03-21T03:10:49.425Z,3.10
2023-03-21T03:16:12.256Z,2.92
2023-03-21T03:21:36.320Z,2.88
2023-03-21T03:26:52.927Z,2.85
2023-03-21T03:31:57.379Z,3.28
2023-03-21T03:36:58.662Z,2.85
2023-03-21T03:42:27.187Z,3.00
2023-03-21T03:48:03.114Z,2.92
2023-03-21T03:53:16.237Z,2.85
2023-03-21T03:58:21.611Z,2.47
2023-03-21T04:03:17.916Z,2.83
2023-03-21T04:08:10.987Z,2.70
2023-03-21T04:13:08.790Z,2.67
2023-03-21T04:18:10.667Z,2.53
2023-03-21T04:23:03.771Z,2.80
2023-03-21T04:27:57.418Z,2.42
2023-03-21T04:33:01.583Z,2.50
2023-03-21T04:37:57.013Z,2.30
2023-03-21T04:42:50.504Z,3.00
2023-03-21T04:47:44.229Z,2.50
2023-03-21T04:52:37.062Z,2.67
2023-03-21T04:57:31.021Z,2.53
2023-03-21T05:02:23.959Z,2.20
2023-03-21T05:07:17.379Z,2.55
2023-03-21T05:12:10.244Z,2.42
2023-03-21T05:17:05.714Z,2.25
2023-03-21T05:22:05.401Z,2.20
2023-03-21T05:27:02.601Z,2.13
2023-03-21T05:32:02.392Z,2.40
2023-03-21T05:36:55.791Z,2.38
2023-03-21T05:41:52.402Z,2.15
2023-03-21T05:46:45.229Z,2.28
2023-03-21T05:51:38.636Z,2.00
2023-03-21T05:56:32.015Z,2.03
2023-03-21T06:01:29.334Z,2.40
2023-03-21T06:06:33.127Z,2.25
2023-03-21T06:11:38.521Z,2.42
2023-03-21T06:16:54.449Z,2.60
2023-03-21T06:21:48.038Z,2.83
2023-03-21T06:26:42.494Z,2.65
2023-03-21T06:31:36.178Z,4.03
2023-03-21T06:36:31.081Z,2.60
2023-03-21T06:41:23.925Z,2.72
2023-03-21T06:46:29.108Z,2.95
2023-03-21T06:51:23.002Z,3.70
2023-03-21T06:56:32.265Z,3.92
2023-03-21T07:01:28.486Z,3.40
2023-03-21T07:06:30.678Z,3.20
2023-03-21T07:11:26.085Z,3.15
2023-03-21T07:16:22.385Z,3.13
2023-03-21T07:21:18.479Z,2.80
2023-03-21T07:26:11.477Z,2.40
2023-03-21T07:31:09.108Z,2.55
2023-03-21T07:36:03.679Z,3.33
2023-03-21T07:40:56.298Z,2.80
2023-03-21T07:45:49.975Z,2.60
2023-03-21T07:50:42.417Z,2.60
2023-03-21T07:55:37.981Z,2.50
2023-03-21T08:00:31.921Z,2.33
2023-03-21T08:05:30.054Z,2.72
2023-03-21T08:10:23.286Z,2.40
2023-03-21T08:15:16.297Z,5.03
2023-03-21T08:20:12.443Z,4.57
2023-03-21T08:25:07.115Z,5.20
2023-03-21T08:30:00.731Z,12.25
2023-03-21T08:34:54.024Z,15.23
2023-03-21T08:39:47.513Z,15.55
2023-03-21T08:44:41.867Z,16.67
2023-03-21T08:49:36.090Z,19.38
2023-03-21T08:54:29.078Z,21.10
2023-03-21T08:59:22.604Z,13.55
2023-03-21T09:04:15.460Z,18.75
2023-03-21T09:09:09.824Z,15.32
2023-03-21T09:14:02.038Z,17.65
2023-03-21T09:18:57.080Z,15.70
2023-03-21T09:23:56.881Z,17.65
2023-03-21T09:28:50.821Z,17.67
2023-03-21T09:33:44.268Z,17.50
2023-03-21T09:38:40.381Z,13.68
2023-03-21T09:43:49.945Z,17.90
2023-03-21T09:48:57.309Z,18.57
2023-03-21T09:53:55.938Z,14.88
2023-03-21T09:58:56.775Z,13.68
2023-03-21T10:04:08.749Z,12.30
2023-03-21T10:09:09.873Z,12.77
2023-03-21T10:14:19.119Z,11.18
2023-03-21T10:19:15.618Z,10.98
2023-03-21T10:24:14.258Z,9.82
2023-03-21T10:29:07.268Z,9.50
2023-03-21T10:34:05.456Z,10.32
2023-03-21T10:39:02.013Z,8.43
2023-03-21T10:44:10.481Z,8.40
2023-03-21T10:49:04.827Z,6.82
2023-03-21T10:54:01.512Z,6.40
2023-03-21T10:58:58.965Z,6.00
2023-03-21T11:03:58.917Z,5.15
2023-03-21T11:08:56.241Z,4.45
2023-03-21T11:13:57.276Z,3.92
2023-03-21T11:18:53.054Z,4.10
2023-03-21T11:23:52.521Z,3.58
2023-03-21T11:28:47.439Z,3.15
2023-03-21T11:33:46.044Z,3.50
2023-03-21T11:38:41.310Z,2.80
2023-03-21T11:43:37.946Z,2.63
2023-03-21T11:48:38.402Z,2.63
2023-03-21T11:53:47.331Z,2.97
2023-03-21T11:59:07.785Z,2.85
2023-03-21T12:04:08.227Z,2.55
2023-03-21T12:09:19.268Z,2.47
2023-03-21T12:14:48.233Z,3.20
2023-03-21T12:19:49.951Z,2.38
2023-03-21T12:24:57.551Z,2.75
2023-03-21T12:30:13.928Z,2.97
2023-03-21T12:35:39.225Z,2.80
2023-03-21T12:40:46.716Z,2.88
2023-03-21T12:45:47.680Z,2.90
2023-03-21T12:50:43.695Z,2.80
2023-03-21T12:55:37.115Z,2.25
2023-03-21T13:00:40.467Z,2.33
2023-03-21T13:05:54.161Z,2.90
2023-03-21T13:10:52.585Z,2.55
2023-03-21T13:16:12.271Z,2.80
2023-03-21T13:26:14.631Z,2.42
2023-03-21T13:31:19.201Z,2.47
2023-03-21T13:36:14.761Z,1.98
2023-03-21T13:41:21.816Z,2.80
2023-03-21T13:46:46.967Z,17.40
2023-03-21T13:56:46.190Z,56.03
2023-03-21T14:01:43.379Z,42.90
2023-03-21T14:06:45.644Z,35.05
2023-03-21T14:11:44.428Z,30.20
2023-03-21T14:16:39.841Z,27.80
2023-03-21T14:21:36.134Z,25.65
2023-03-21T14:26:34.398Z,25.00
2023-03-21T14:31:27.890Z,22.55
2023-03-21T14:36:27.533Z,22.05
2023-03-21T14:41:29.513Z,20.20
2023-03-21T14:46:22.018Z,18.70
2023-03-21T14:51:16.360Z,19.92
2023-03-21T14:56:22.541Z,16.65
2023-03-21T15:01:28.431Z,15.95
2023-03-21T15:06:20.532Z,14.60
2023-03-21T15:11:21.252Z,13.48
2023-03-21T15:16:15.661Z,14.77
2023-03-21T15:21:17.245Z,12.25
2023-03-21T15:26:19.613Z,11.43
2023-03-21T15:31:24.874Z,11.48
2023-03-21T15:36:29.087Z,10.40
2023-03-21T15:41:21.590Z,10.30
2023-03-21T15:46:42.718Z,10.20
2023-03-21T15:51:36.503Z,8.77
2023-03-21T15:56:34.792Z,8.40
2023-03-21T16:01:31.098Z,7.63
2023-03-21T16:06:31.149Z,7.15
2023-03-21T16:11:23.565Z,8.10
2023-03-21T16:16:27.310Z,8.20
2023-03-21T16:21:22.384Z,6.82
2023-03-21T16:26:17.480Z,6.35
2023-03-21T16:31:32.710Z,6.65
2023-03-21T16:36:29.015Z,6.15
2023-03-21T16:41:23.879Z,6.10
2023-03-21T16:46:22.492Z,5.85
2023-03-21T16:51:16.533Z,6.07
2023-03-21T16:56:20.224Z,6.70
2023-03-21T17:01:19.995Z,6.07
2023-03-21T17:06:15.462Z,5.10
2023-03-21T17:11:13.577Z,6.07
2023-03-21T17:16:08.508Z,5.30
2023-03-21T17:21:02.553Z,5.65
2023-03-21T17:25:57.081Z,4.97
2023-03-21T17:30:50.724Z,4.95
2023-03-21T17:35:44.454Z,4.93
2023-03-21T17:40:37.762Z,5.63
2023-03-21T17:45:31.449Z,5.00
2023-03-21T17:50:32.345Z,5.18
2023-03-21T17:55:26.744Z,4.65
2023-03-21T18:00:23.377Z,5.80
2023-03-21T18:05:18.127Z,6.13
2023-03-21T18:10:15.923Z,5.63
2023-03-21T18:15:14.256Z,6.43
2023-03-21T18:20:10.443Z,7.20
2023-03-21T18:25:06.451Z,7.10
2023-03-21T18:30:45.171Z,7.20
2023-03-21T18:35:22.714Z,7.45
2023-03-21T18:40:15.795Z,22.45
2023-03-21T18:45:11.608Z,88.53
2023-03-21T18:50:14.776Z,54.17
2023-03-21T18:55:10.815Z,43.22
2023-03-21T19:00:17.559Z,39.60
2023-03-21T19:05:31.488Z,38.30
2023-03-21T19:10:25.221Z,36.17
2023-03-21T19:15:41.313Z,33.78
2023-03-21T19:20:35.077Z,32.55
2023-03-21T19:25:29.506Z,28.27
2023-03-21T19:30:22.898Z,26.23
2023-03-21T19:35:15.665Z,23.23
2023-03-21T19:40:09.418Z,21.55
2023-03-21T19:45:02.330Z,18.90
2023-03-21T19:50:40.910Z,19.23
2023-03-21T19:55:09.331Z,19.17
2023-03-21T20:00:02.017Z,18.42
2023-03-21T20:04:57.314Z,18.90
2023-03-21T20:09:54.233Z,17.58
2023-03-21T20:14:50.726Z,17.48
2023-03-21T20:19:44.754Z,18.42
2023-03-21T20:24:38.805Z,17.10
2023-03-21T20:30:08.045Z,18.20
2023-03-21T20:34:46.066Z,16.17
2023-03-21T20:39:39.061Z,15.38
2023-03-21T20:44:58.331Z,15.70
2023-03-21T20:49:46.181Z,13.77
2023-03-21T20:54:38.425Z,13.70
2023-03-21T20:59:32.496Z,14.25
2023-03-21T21:04:43.146Z,12.93
2023-03-21T21:09:40.035Z,14.18
2023-03-21T21:14:35.962Z,13.23
2023-03-21T21:19:28.997Z,12.93
2023-03-21T21:24:21.739Z,13.23
2023-03-21T21:29:18.297Z,12.25
2023-03-21T21:34:11.360Z,11.93
2023-03-21T21:39:07.929Z,11.18
2023-03-21T21:44:01.988Z,11.32
2023-03-21T21:48:56.465Z,10.18
2023-03-21T21:53:50.741Z,11.57
2023-03-21T21:58:49.101Z,11.05
2023-03-21T22:03:46.548Z,10.45
2023-03-21T22:08:47.333Z,10.30
2023-03-21T22:13:40.549Z,9.75
2023-03-21T22:18:36.477Z,9.82
2023-03-21T22:23:30.217Z,8.90
2023-03-21T22:28:25.917Z,8.73
2023-03-21T22:33:20.227Z,9.20
2023-03-21T22:38:14.770Z,9.27
2023-03-21T22:43:09.084Z,8.77
2023-03-21T22:48:02.139Z,8.73
2023-03-21T22:52:55.556Z,9.20
2023-03-21T22:57:48.469Z,8.45
2023-03-21T23:02:42.877Z,8.40
2023-03-21T23:07:35.849Z,8.70
2023-03-21T23:12:29.651Z,8.30
2023-03-21T23:17:22.973Z,7.65
2023-03-21T23:22:16.555Z,7.85
2023-03-21T23:27:09.413Z,8.00
2023-03-21T23:32:02.637Z,7.90
2023-03-21T23:36:55.469Z,7.60
2023-03-21T23:41:48.474Z,7.97
2023-03-21T23:46:42.501Z,7.20
2023-03-21T23:51:40.455Z,6.80
2023-03-21T23:56:33.974Z,7.28
